Time;durP1;ratioP1;P1;durP2;ratioP2;P2;SDS_P1;SDS_P2;PMS_P1;PMS_P2;Temp;Humidity;BMP_temperature;BMP_pressure;BME280_temperature;BME280_humidity;BME280_pressure;Samples;Min_cycle;Max_cycle;Signal;HPM_P1;HPM_P2
2021/03/10 00:02:12;;;;;;;17.38;8.25;;;5.40;99.90;;;;;;5061604;28;20043;-66
2021/03/10 00:05:16;;;;;;;13.18;7.85;;;5.40;99.90;;;;;;5069224;28;20059;-67
2021/03/10 00:08:20;;;;;;;11.95;7.75;;;5.40;99.90;;;;;;5069744;28;20043;-66
2021/03/10 00:11:24;;;;;;;13.43;8.40;;;5.30;99.90;;;;;;5058697;28;20047;-66
2021/03/10 00:14:28;;;;;;;13.18;7.75;;;5.30;99.90;;;;;;5068288;28;20048;-67
2021/03/10 00:17:33;;;;;;;16.60;8.25;;;5.20;99.90;;;;;;5062387;28;20492;-67
2021/03/10 00:20:37;;;;;;;12.23;7.70;;;5.20;99.90;;;;;;5062909;28;20043;-65
2021/03/10 00:23:42;;;;;;;17.38;8.80;;;5.20;99.90;;;;;;5069542;28;20519;-67
2021/03/10 00:26:46;;;;;;;12.75;8.20;;;5.20;99.90;;;;;;5057074;28;20067;-67
2021/03/10 00:30:02;;;;;;;17.13;8.15;;;5.10;99.90;;;;;;5068948;28;20052;-67
2021/03/10 00:33:07;;;;;;;13.23;7.93;;;5.20;99.90;;;;;;5068979;28;20416;-67
2021/03/10 00:36:11;;;;;;;16.70;8.38;;;5.20;99.90;;;;;;5068301;28;20056;-66
2021/03/10 00:39:15;;;;;;;12.82;7.60;;;5.20;99.90;;;;;;5068746;28;20047;-66
2021/03/10 00:42:21;;;;;;;15.13;8.68;;;5.10;99.90;;;;;;5069000;28;20048;-66
2021/03/10 00:45:25;;;;;;;15.00;9.30;;;5.00;99.90;;;;;;5066759;28;20056;-67
2021/03/10 00:48:30;;;;;;;20.17;11.00;;;5.00;99.90;;;;;;5068414;28;20039;-67
2021/03/10 00:51:34;;;;;;;20.58;9.93;;;5.10;99.90;;;;;;5068496;28;20103;-66
2021/03/10 00:54:40;;;;;;;21.38;11.57;;;5.00;99.90;;;;;;5068962;28;20051;-66
2021/03/10 00:57:44;;;;;;;21.98;12.02;;;4.90;99.90;;;;;;5059359;28;20052;-66
2021/03/10 01:00:49;;;;;;;19.67;11.30;;;4.90;99.90;;;;;;5068651;28;20035;-66
2021/03/10 01:03:52;;;;;;;19.08;10.80;;;4.80;99.90;;;;;;5068263;28;20044;-67
2021/03/10 01:06:59;;;;;;;17.55;9.60;;;4.80;99.90;;;;;;5067819;28;20044;-66
2021/03/10 01:10:06;;;;;;;20.33;11.15;;;4.80;99.90;;;;;;5069257;28;20048;-67
2021/03/10 01:13:10;;;;;;;16.23;9.68;;;4.80;99.90;;;;;;5072176;28;20039;-66
2021/03/10 01:16:14;;;;;;;19.25;9.75;;;4.70;99.90;;;;;;5058965;28;20055;-67
2021/03/10 01:19:18;;;;;;;16.70;9.20;;;4.60;99.90;;;;;;5070205;28;20036;-66
2021/03/10 01:22:23;;;;;;;15.15;8.15;;;4.60;99.90;;;;;;5059586;28;20047;-67
2021/03/10 01:25:27;;;;;;;17.13;9.50;;;4.60;99.90;;;;;;5068503;28;20044;-67
2021/03/10 01:28:31;;;;;;;12.35;8.38;;;4.70;99.90;;;;;;5056165;28;20036;-67
2021/03/10 01:31:35;;;;;;;16.33;8.43;;;4.80;99.90;;;;;;5067327;28;20051;-66
2021/03/10 01:34:40;;;;;;;14.15;7.88;;;4.80;99.90;;;;;;5066591;28;20043;-66
2021/03/10 01:37:43;;;;;;;15.65;8.25;;;5.00;99.90;;;;;;5071338;28;20056;-66
2021/03/10 01:40:52;;;;;;;19.45;12.10;;;5.00;99.90;;;;;;5061545;28;20051;-67
2021/03/10 01:43:57;;;;;;;20.58;11.73;;;5.00;99.90;;;;;;5072184;28;20400;-67
2021/03/10 01:47:03;;;;;;;22.85;11.75;;;4.90;99.90;;;;;;5071583;28;20040;-66
2021/03/10 01:50:10;;;;;;;19.80;12.85;;;4.70;99.90;;;;;;5071902;28;20043;-67
2021/03/10 01:53:15;;;;;;;24.73;14.52;;;4.60;99.90;;;;;;5068374;28;20055;-67
2021/03/10 01:56:23;;;;;;;25.10;13.80;;;4.50;99.90;;;;;;5055454;28;20048;-66
2021/03/10 01:59:27;;;;;;;22.65;13.48;;;4.40;99.90;;;;;;5058946;28;20051;-67
2021/03/10 02:02:31;;;;;;;22.25;12.52;;;4.40;99.90;;;;;;5071283;28;20039;-67
2021/03/10 02:05:36;;;;;;;19.70;12.68;;;4.40;99.90;;;;;;5064308;28;20040;-67
2021/03/10 02:08:52;;;;;;;25.27;13.00;;;4.30;99.90;;;;;;5069197;28;20039;-67
2021/03/10 02:12:15;;;;;;;25.42;13.55;;;4.30;99.90;;;;;;5064130;28;20420;-67
2021/03/10 02:15:32;;;;;;;;;;;4.20;99.90;;;;;;5070069;28;20047;-67
2021/03/10 02:18:53;;;;;;;19.10;11.27;;;4.10;99.90;;;;;;5070934;28;20410;-66
2021/03/10 02:22:02;;;;;;;22.27;12.38;;;4.10;99.90;;;;;;5070044;28;20044;-66
2021/03/10 02:25:51;;;;;;;22.15;11.88;;;4.10;99.90;;;;;;5070719;28;20416;-65
2021/03/10 02:29:05;;;;;;;17.65;11.52;;;4.10;99.90;;;;;;5063603;28;20043;-67
2021/03/10 02:32:10;;;;;;;22.83;12.20;;;4.10;99.90;;;;;;5070858;28;20044;-67
2021/03/10 02:35:16;;;;;;;23.05;11.45;;;4.10;99.90;;;;;;5070601;28;20055;-67
2021/03/10 02:38:22;;;;;;;20.70;11.38;;;4.10;99.90;;;;;;5070048;28;20048;-67
2021/03/10 02:41:29;;;;;;;18.08;10.45;;;4.10;99.90;;;;;;5070414;28;20067;-67
2021/03/10 02:44:34;;;;;;;18.90;10.02;;;4.20;99.90;;;;;;5070079;28;20039;-67
2021/03/10 02:47:40;;;;;;;19.00;10.73;;;4.30;99.90;;;;;;5070578;28;20098;-67
2021/03/10 02:50:46;;;;;;;21.50;12.02;;;4.30;99.90;;;;;;5059319;28;20519;-66
2021/03/10 02:53:51;;;;;;;21.05;11.80;;;4.20;99.90;;;;;;5052973;28;20428;-66
2021/03/10 02:56:56;;;;;;;20.73;11.63;;;4.20;99.90;;;;;;5067635;28;20044;-65
2021/03/10 03:00:08;;;;;;;17.27;10.75;;;4.20;99.90;;;;;;5069969;28;20059;-67
2021/03/10 03:03:13;;;;;;;20.00;11.20;;;4.20;99.90;;;;;;5063915;28;20055;-65
2021/03/10 03:06:18;;;;;;;19.60;11.20;;;4.10;99.90;;;;;;5069639;28;20039;-65
2021/03/10 03:09:24;;;;;;;20.40;10.68;;;4.00;99.90;;;;;;5069868;28;20043;-67
2021/03/10 03:12:29;;;;;;;18.25;9.95;;;3.90;99.90;;;;;;5070179;28;20039;-67
2021/03/10 03:15:33;;;;;;;15.57;9.35;;;3.90;99.90;;;;;;5069656;28;20047;-67
2021/03/10 03:18:38;;;;;;;16.42;8.40;;;3.90;99.90;;;;;;5063436;28;20047;-66
2021/03/10 03:21:43;;;;;;;12.30;7.78;;;3.80;99.90;;;;;;5057898;28;20047;-66
2021/03/10 03:24:50;;;;;;;14.15;8.82;;;3.90;99.90;;;;;;5069611;28;20055;-67
2021/03/10 03:28:04;;;;;;;17.52;9.85;;;3.90;99.90;;;;;;5056750;28;20404;-65
2021/03/10 03:31:08;;;;;;;13.95;8.75;;;3.90;99.90;;;;;;5069842;28;20039;-67
2021/03/10 03:34:13;;;;;;;13.55;8.45;;;3.90;99.90;;;;;;5057218;28;20071;-67
2021/03/10 03:37:17;;;;;;;13.82;8.20;;;3.90;99.90;;;;;;5062000;28;20051;-67
2021/03/10 03:40:23;;;;;;;20.90;10.07;;;3.90;99.90;;;;;;5066989;28;20815;-67
2021/03/10 03:43:28;;;;;;;12.82;8.15;;;3.90;99.90;;;;;;5069558;28;20043;-67
2021/03/10 03:46:33;;;;;;;13.15;8.35;;;3.80;99.90;;;;;;5068659;28;20103;-67
2021/03/10 03:49:41;;;;;;;15.20;9.05;;;3.80;99.90;;;;;;5069232;28;20510;-67
2021/03/10 03:52:45;;;;;;;14.32;8.77;;;3.90;99.90;;;;;;5069155;28;20039;-67
2021/03/10 03:55:52;;;;;;;18.15;9.27;;;3.90;99.90;;;;;;5058119;28;20502;-67
2021/03/10 03:58:58;;;;;;;16.13;8.93;;;3.80;99.90;;;;;;5055378;28;20059;-66
2021/03/10 04:02:02;;;;;;;18.20;9.30;;;3.70;99.90;;;;;;5068006;28;20038;-67
2021/03/10 04:05:07;;;;;;;12.98;7.93;;;3.70;99.90;;;;;;5068661;28;20043;-67
2021/03/10 04:08:12;;;;;;;15.98;8.93;;;3.60;99.90;;;;;;5069199;28;20523;-66
2021/03/10 04:11:18;;;;;;;17.52;9.23;;;3.70;99.90;;;;;;5058992;28;20519;-66
2021/03/10 04:14:22;;;;;;;19.90;8.88;;;3.70;99.90;;;;;;5057070;28;20419;-67
2021/03/10 04:17:26;;;;;;;15.05;8.65;;;3.80;99.90;;;;;;5068766;28;20508;-67
2021/03/10 04:20:30;;;;;;;16.77;8.73;;;3.80;99.90;;;;;;5066568;28;20071;-67
2021/03/10 04:23:35;;;;;;;17.23;9.25;;;3.80;99.90;;;;;;5062873;28;20522;-67
2021/03/10 04:26:39;;;;;;;14.10;8.55;;;3.80;99.90;;;;;;5068659;28;20511;-66
2021/03/10 04:29:43;;;;;;;13.93;8.65;;;3.80;99.90;;;;;;5056878;28;20473;-67
2021/03/10 04:32:47;;;;;;;18.08;9.10;;;3.90;99.90;;;;;;5069155;28;20043;-66
2021/03/10 04:35:59;;;;;;;17.08;8.65;;;4.00;99.90;;;;;;5069271;28;20051;-66
2021/03/10 04:39:03;;;;;;;14.88;8.70;;;4.00;99.90;;;;;;5060877;28;20059;-66
2021/03/10 04:42:08;;;;;;;14.95;8.13;;;4.00;99.90;;;;;;5058037;28;20052;-66
2021/03/10 04:45:15;;;;;;;18.42;9.93;;;4.00;99.90;;;;;;5069650;28;20423;-66
2021/03/10 04:48:20;;;;;;;17.15;9.15;;;3.90;99.90;;;;;;5073397;28;20043;-67
2021/03/10 04:51:24;;;;;;;13.50;8.50;;;3.90;99.90;;;;;;5072537;28;20048;-67
2021/03/10 04:54:30;;;;;;;17.05;10.10;;;3.90;99.90;;;;;;5073401;28;20526;-67
2021/03/10 04:57:36;;;;;;;16.38;9.68;;;3.80;99.90;;;;;;5072944;28;20051;-67
2021/03/10 05:00:41;;;;;;;17.38;9.88;;;3.80;99.90;;;;;;5059526;28;20408;-67
2021/03/10 05:03:46;;;;;;;18.77;9.50;;;3.80;99.90;;;;;;5072708;28;20055;-67
2021/03/10 05:06:50;;;;;;;24.20;9.32;;;3.70;99.90;;;;;;5072298;28;20055;-67
2021/03/10 05:09:54;;;;;;;16.55;9.88;;;3.70;99.90;;;;;;5072495;28;20076;-67
2021/03/10 05:12:58;;;;;;;18.05;9.25;;;3.60;99.90;;;;;;5072929;28;20503;-66
2021/03/10 05:16:02;;;;;;;17.63;10.10;;;3.50;99.90;;;;;;5059482;28;20039;-66
2021/03/10 05:19:07;;;;;;;16.23;8.98;;;3.50;99.90;;;;;;5072579;28;20056;-67
2021/03/10 05:22:11;;;;;;;19.75;9.63;;;3.50;99.90;;;;;;5071731;28;20063;-67
2021/03/10 05:25:16;;;;;;;15.30;9.27;;;3.50;99.90;;;;;;5072291;28;20048;-67
2021/03/10 05:28:20;;;;;;;18.23;9.52;;;3.40;99.90;;;;;;5072694;28;20420;-67
2021/03/10 05:31:24;;;;;;;25.45;11.68;;;3.30;99.90;;;;;;5059812;28;20040;-65
2021/03/10 05:34:28;;;;;;;16.67;9.60;;;3.30;99.90;;;;;;5072036;28;20046;-66
2021/03/10 05:37:33;;;;;;;17.90;8.85;;;3.40;99.90;;;;;;5071806;28;20511;-67
2021/03/10 05:40:37;;;;;;;16.17;9.05;;;3.50;99.90;;;;;;5071971;28;20048;-66
2021/03/10 05:43:43;;;;;;;14.82;8.77;;;3.50;99.90;;;;;;5059586;28;20052;-67
2021/03/10 05:46:49;;;;;;;15.65;8.65;;;3.50;99.90;;;;;;5071693;28;20471;-67
2021/03/10 05:49:53;;;;;;;16.92;9.60;;;3.40;99.90;;;;;;5060982;28;20043;-67
2021/03/10 05:53:01;;;;;;;18.83;10.68;;;3.40;99.90;;;;;;5072146;28;20063;-67
2021/03/10 05:56:07;;;;;;;15.48;9.60;;;3.50;99.90;;;;;;5065548;28;20522;-67
2021/03/10 05:59:12;;;;;;;17.33;9.73;;;3.50;99.90;;;;;;5062381;28;20043;-68
2021/03/10 06:02:17;;;;;;;19.33;11.25;;;3.50;99.90;;;;;;5066764;28;20415;-68
2021/03/10 06:05:23;;;;;;;17.88;10.00;;;3.60;99.90;;;;;;5067556;28;20563;-67
2021/03/10 06:08:33;;;;;;;24.13;10.93;;;3.70;99.90;;;;;;5063278;28;20102;-68
2021/03/10 06:11:38;;;;;;;19.65;10.68;;;3.90;99.90;;;;;;5067086;28;20035;-68
2021/03/10 06:14:42;;;;;;;22.38;10.15;;;4.00;99.90;;;;;;5068357;28;20039;-67
2021/03/10 06:17:48;;;;;;;19.15;11.07;;;4.20;99.90;;;;;;5066751;28;20052;-68
2021/03/10 06:21:13;;;;;;;23.88;11.32;;;4.40;99.90;;;;;;5049678;28;20044;-65
2021/03/10 06:24:18;;;;;;;20.02;10.55;;;4.90;99.90;;;;;;5060976;28;20047;-67
2021/03/10 06:27:23;;;;;;;17.13;9.38;;;7.30;99.90;;;;;;5067520;28;20027;-68
2021/03/10 06:30:35;;;;;;;18.60;9.00;;;10.20;99.90;;;;;;5063804;28;20044;-67
2021/03/10 06:33:39;;;;;;;;;;;12.90;99.90;;;;;;5070859;28;20043;-67
2021/03/10 06:36:48;;;;;;;18.00;8.52;;;14.30;97.90;;;;;;5069216;28;20270;-68
2021/03/10 06:39:53;;;;;;;16.98;9.13;;;15.30;95.40;;;;;;5066783;28;20508;-67
2021/03/10 06:42:58;;;;;;;18.50;9.50;;;16.00;93.40;;;;;;5065040;28;20055;-69
2021/03/10 06:46:14;;;;;;;15.23;9.00;;;15.90;93.30;;;;;;5065179;28;20047;-67
2021/03/10 06:49:21;;;;;;;13.93;8.25;;;17.20;91.50;;;;;;5063997;28;20047;-68
2021/03/10 06:52:25;;;;;;;15.65;9.27;;;18.20;90.40;;;;;;5066150;28;20047;-68
2021/03/10 06:55:45;;;;;;;16.67;9.38;;;19.00;85.80;;;;;;5068113;28;20032;-68
2021/03/10 06:59:01;;;;;;;12.88;8.75;;;19.40;80.30;;;;;;5062156;28;20044;-68
2021/03/10 07:02:29;;;;;;;13.82;9.27;;;19.90;77.80;;;;;;5060999;28;20040;-68
2021/03/10 07:05:34;;;;;;;17.02;9.93;;;19.80;76.50;;;;;;5062950;28;20040;-68
2021/03/10 07:08:11;;;;;;;17.88;11.82;;;19.60;72.80;;;;;;5065762;28;20388;-68
2021/03/10 07:11:17;;;;;;;16.08;11.25;;;19.00;73.50;;;;;;5026463;28;20041;-68
2021/03/10 07:14:21;;;;;;;13.07;9.48;;;19.50;73.90;;;;;;5030889;28;20044;-68
2021/03/10 07:17:27;;;;;;;17.10;9.77;;;20.70;71.20;;;;;;5031039;28;20052;-68
2021/03/10 07:20:31;;;;;;;13.90;10.27;;;20.70;71.90;;;;;;5032546;28;20055;-68
2021/03/10 07:23:47;;;;;;;18.88;9.82;;;20.60;72.30;;;;;;5030347;28;20049;-67
2021/03/10 07:26:54;;;;;;;16.00;10.93;;;20.70;67.70;;;;;;5028206;28;20527;-68
2021/03/10 07:29:59;;;;;;;13.88;9.50;;;21.40;70.50;;;;;;5029446;28;20060;-68
2021/03/10 07:33:23;;;;;;;13.50;8.77;;;22.00;66.80;;;;;;5035984;28;20040;-68
2021/03/10 07:36:40;;;;;;;13.93;8.65;;;22.70;63.90;;;;;;5031686;28;20404;-68
2021/03/10 07:39:44;;;;;;;11.75;7.90;;;22.90;61.80;;;;;;5028146;28;20415;-68
2021/03/10 07:42:54;;;;;;;15.00;7.40;;;23.40;60.00;;;;;;5026158;28;20052;-68
2021/03/10 07:45:58;;;;;;;11.07;7.88;;;23.90;59.60;;;;;;5035147;28;20514;-66
2021/03/10 07:49:22;;;;;;;10.00;7.38;;;23.40;56.60;;;;;;5030821;28;20040;-67
2021/03/10 07:52:28;;;;;;;11.50;7.15;;;22.90;57.20;;;;;;5028281;28;20037;-68
2021/03/10 07:55:46;;;;;;;9.93;7.68;;;23.40;56.00;;;;;;5030537;28;20033;-69
2021/03/10 07:58:50;;;;;;;12.98;8.02;;;23.20;55.40;;;;;;5041629;28;20516;-67
2021/03/10 08:02:03;;;;;;;13.15;7.78;;;23.10;54.70;;;;;;5038266;28;20036;-68
2021/03/10 08:05:25;;;;;;;9.75;7.35;;;22.80;54.40;;;;;;5030798;28;20028;-67
2021/03/10 08:08:50;;;;;;;13.40;7.97;;;22.60;54.00;;;;;;5037889;28;20037;-68
2021/03/10 08:12:11;;;;;;;11.05;7.63;;;21.70;53.90;;;;;;5030175;28;20040;-67
2021/03/10 08:15:22;;;;;;;;;;;22.50;54.40;;;;;;5040714;28;20060;-68
2021/03/10 08:18:28;;;;;;;13.70;8.32;;;23.10;54.00;;;;;;5027702;28;19916;-67
2021/03/10 08:21:33;;;;;;;16.00;8.05;;;23.10;53.00;;;;;;5012992;28;20519;-67
2021/03/10 08:24:37;;;;;;;10.30;7.45;;;23.00;53.60;;;;;;5017312;28;20044;-67
2021/03/10 08:27:43;;;;;;;11.90;7.38;;;23.50;52.30;;;;;;5011932;28;20052;-68
2021/03/10 08:30:49;;;;;;;9.00;7.07;;;23.80;52.40;;;;;;5015624;28;20041;-68
2021/03/10 08:33:53;;;;;;;11.02;7.03;;;24.60;52.30;;;;;;5017991;28;20262;-68
2021/03/10 08:36:59;;;;;;;11.63;7.05;;;25.00;50.50;;;;;;5019853;28;20049;-68
2021/03/10 08:40:06;;;;;;;11.23;7.63;;;24.60;50.30;;;;;;5022035;28;20053;-69
2021/03/10 08:43:17;;;;;;;11.93;8.10;;;24.80;50.00;;;;;;5017506;28;20052;-68
2021/03/10 08:46:22;;;;;;;12.60;8.15;;;24.60;50.50;;;;;;5011197;28;20066;-67
2021/03/10 08:49:31;;;;;;;10.38;7.38;;;24.60;50.20;;;;;;5027256;28;20530;-67
2021/03/10 08:52:35;;;;;;;11.55;8.00;;;24.50;49.60;;;;;;5017629;28;20036;-67
2021/03/10 08:55:39;;;;;;;10.68;7.53;;;24.40;49.10;;;;;;5017434;28;20041;-67
2021/03/10 08:58:53;;;;;;;12.52;7.10;;;25.00;49.40;;;;;;5014249;28;20033;-67
2021/03/10 09:01:58;;;;;;;9.88;6.70;;;25.10;49.20;;;;;;5018883;28;20459;-68
2021/03/10 09:05:05;;;;;;;8.40;6.70;;;25.90;48.50;;;;;;5009803;28;20042;-68
2021/03/10 09:08:13;;;;;;;8.32;6.43;;;27.20;47.00;;;;;;5010186;28;20037;-68
2021/03/10 09:11:19;;;;;;;10.07;6.00;;;28.20;47.00;;;;;;5022647;28;20404;-68
2021/03/10 09:14:44;;;;;;;7.55;5.93;;;29.10;45.70;;;;;;5010814;28;20041;-67
2021/03/10 09:18:03;;;;;;;7.25;5.93;;;28.60;44.50;;;;;;5011061;28;20499;-67
2021/03/10 09:21:09;;;;;;;8.65;5.55;;;28.60;43.40;;;;;;5022203;28;20094;-68
2021/03/10 09:24:19;;;;;;;7.90;6.03;;;28.60;42.80;;;;;;5010334;28;20026;-68
2021/03/10 09:27:29;;;;;;;7.40;5.53;;;29.30;43.40;;;;;;5009894;28;20041;-67
2021/03/10 09:30:42;;;;;;;8.35;6.25;;;29.80;43.30;;;;;;5009382;28;20038;-68
2021/03/10 09:33:47;;;;;;;12.63;5.57;;;29.70;43.20;;;;;;5020937;28;20037;-67
2021/03/10 09:37:06;;;;;;;7.22;5.55;;;30.10;42.60;;;;;;5014987;28;20033;-68
2021/03/10 09:40:13;;;;;;;7.75;5.10;;;30.10;42.70;;;;;;5021195;28;20038;-67
2021/03/10 09:43:21;;;;;;;6.95;5.68;;;30.80;41.70;;;;;;5029010;28;20037;-68
2021/03/10 09:46:47;;;;;;;7.57;4.95;;;31.60;41.10;;;;;;5031130;28;20026;-68
2021/03/10 09:49:58;;;;;;;9.20;5.28;;;32.30;40.40;;;;;;5021716;28;20503;-68
2021/03/10 09:53:14;;;;;;;7.22;5.25;;;32.50;40.60;;;;;;5020746;28;20038;-68
2021/03/10 09:56:21;;;;;;;6.25;5.20;;;32.20;39.70;;;;;;5022950;28;20608;-68
2021/03/10 09:59:39;;;;;;;10.93;5.60;;;32.10;39.80;;;;;;5026815;28;20044;-68
2021/03/10 10:02:51;;;;;;;6.32;5.13;;;31.50;39.20;;;;;;5028223;28;20040;-68
2021/03/10 10:06:06;;;;;;;7.93;5.32;;;31.10;39.70;;;;;;5021074;28;20569;-68
2021/03/10 10:09:11;;;;;;;7.10;5.25;;;29.70;39.40;;;;;;5031999;28;20405;-67
2021/03/10 10:12:15;;;;;;;6.90;4.80;;;30.10;39.90;;;;;;5034279;28;20044;-68
2021/03/10 10:15:34;;;;;;;8.30;5.00;;;30.50;40.00;;;;;;5035659;28;20052;-67
2021/03/10 10:18:44;;;;;;;8.82;4.72;;;31.20;39.10;;;;;;5033551;28;20048;-67
2021/03/10 10:21:51;;;;;;;5.63;4.63;;;31.70;38.60;;;;;;5012395;28;20055;-69
2021/03/10 10:24:56;;;;;;;8.73;4.80;;;32.10;38.70;;;;;;5015392;28;20052;-68
2021/03/10 10:28:01;;;;;;;6.60;4.90;;;31.90;37.40;;;;;;5015335;28;20052;-68
2021/03/10 10:31:06;;;;;;;7.20;5.35;;;30.00;38.20;;;;;;5011466;28;20051;-68
2021/03/10 10:34:15;;;;;;;10.27;5.25;;;28.30;39.30;;;;;;5015394;28;20653;-67
2021/03/10 10:37:22;;;;;;;7.60;4.05;;;28.60;40.70;;;;;;5018358;28;20188;-68
2021/03/10 10:40:33;;;;;;;6.18;4.40;;;30.40;39.00;;;;;;5022848;28;20059;-68
2021/03/10 10:43:38;;;;;;;5.20;3.95;;;30.10;38.40;;;;;;5010639;28;20052;-67
2021/03/10 10:46:46;;;;;;;6.60;4.60;;;29.60;38.20;;;;;;5011703;28;20148;-67
2021/03/10 10:49:53;;;;;;;5.78;4.40;;;29.50;38.80;;;;;;5010878;28;20038;-68
2021/03/10 10:52:58;;;;;;;6.13;4.07;;;31.20;37.70;;;;;;5004887;28;20029;-68
2021/03/10 10:56:04;;;;;;;8.95;4.15;;;32.20;37.00;;;;;;5008024;28;20041;-68
2021/03/10 10:59:09;;;;;;;5.22;3.33;;;33.30;34.70;;;;;;5024768;28;20048;-69
2021/03/10 11:02:21;;;;;;;3.95;3.55;;;34.20;35.20;;;;;;5016891;28;20049;-68
2021/03/10 11:05:30;;;;;;;6.05;3.53;;;34.90;33.70;;;;;;5013519;28;20412;-67
2021/03/10 11:08:40;;;;;;;11.48;4.25;;;31.70;32.30;;;;;;5015432;28;20041;-67
2021/03/10 11:11:44;;;;;;;13.90;4.60;;;29.00;33.30;;;;;;5017338;28;20037;-67
2021/03/10 11:14:48;;;;;;;5.18;3.72;;;28.10;34.90;;;;;;5007589;28;20045;-68
2021/03/10 11:18:13;;;;;;;10.13;3.50;;;29.00;37.00;;;;;;5014894;28;20049;-68
2021/03/10 11:21:18;;;;;;;3.88;3.47;;;30.20;32.20;;;;;;5018644;28;20064;-66
2021/03/10 11:24:22;;;;;;;5.25;3.90;;;28.80;32.50;;;;;;5016839;28;20049;-68
2021/03/10 11:27:28;;;;;;;4.60;3.40;;;29.00;32.70;;;;;;5012738;28;20044;-69
2021/03/10 11:30:33;;;;;;;4.28;3.88;;;29.80;32.60;;;;;;5019726;28;20041;-68
2021/03/10 11:33:38;;;;;;;4.75;3.45;;;29.10;33.60;;;;;;5015104;28;20045;-66
2021/03/10 11:36:46;;;;;;;5.97;4.05;;;30.30;34.30;;;;;;5006214;28;20041;-68
2021/03/10 11:39:53;;;;;;;4.82;3.65;;;30.50;33.10;;;;;;5011078;28;20242;-69
2021/03/10 11:42:57;;;;;;;4.38;2.92;;;32.40;34.00;;;;;;5009777;28;20022;-66
2021/03/10 11:46:01;;;;;;;6.07;3.42;;;34.00;33.00;;;;;;5018669;28;20057;-66
2021/03/10 11:49:05;;;;;;;4.97;3.45;;;35.00;32.30;;;;;;5019578;28;20049;-68
2021/03/10 11:52:10;;;;;;;6.20;3.40;;;33.30;31.20;;;;;;5015852;28;20064;-68
2021/03/10 11:55:14;;;;;;;4.22;3.13;;;31.20;31.30;;;;;;5020415;28;20058;-67
2021/03/10 11:58:19;;;;;;;4.82;3.50;;;30.00;31.90;;;;;;5021000;28;20046;-68
2021/03/10 12:01:24;;;;;;;5.40;3.50;;;29.40;34.60;;;;;;5014537;28;20052;-68
2021/03/10 12:04:28;;;;;;;4.75;3.40;;;31.00;34.70;;;;;;5010570;28;20416;-67
2021/03/10 12:07:36;;;;;;;4.93;3.58;;;31.10;33.10;;;;;;5022087;28;20041;-68
2021/03/10 12:10:41;;;;;;;7.05;3.83;;;29.60;34.50;;;;;;5021776;28;20044;-68
2021/03/10 12:13:46;;;;;;;6.68;3.80;;;29.30;35.20;;;;;;5037905;28;20033;-70
2021/03/10 12:16:50;;;;;;;25.95;21.35;;;21.50;41.50;;;;;;5032361;28;20041;-67
2021/03/10 12:19:55;;;;;;;7.57;4.90;;;23.40;37.20;;;;;;5035537;28;20056;-67
2021/03/10 12:22:59;;;;;;;5.97;3.83;;;26.70;34.70;;;;;;5022804;28;20052;-67
2021/03/10 12:26:04;;;;;;;6.25;4.50;;;28.10;33.30;;;;;;5024864;28;20518;-67
2021/03/10 12:29:08;;;;;;;5.43;3.65;;;28.10;34.70;;;;;;5029914;28;20045;-68
2021/03/10 12:32:12;;;;;;;6.00;4.18;;;29.50;35.50;;;;;;5026054;28;20129;-68
2021/03/10 12:35:17;;;;;;;5.45;3.78;;;30.10;34.70;;;;;;5029517;28;20037;-68
2021/03/10 12:38:22;;;;;;;5.38;3.72;;;30.70;34.80;;;;;;5030434;28;20048;-68
2021/03/10 12:41:27;;;;;;;4.63;3.47;;;30.60;34.40;;;;;;5032873;28;20036;-68
2021/03/10 12:44:31;;;;;;;4.53;3.58;;;29.90;33.00;;;;;;5020667;28;20036;-68
2021/03/10 12:47:35;;;;;;;4.95;3.50;;;31.40;34.40;;;;;;5019690;28;20048;-68
2021/03/10 12:50:40;;;;;;;4.35;3.17;;;30.80;34.00;;;;;;5020443;28;20399;-68
2021/03/10 12:53:45;;;;;;;5.55;3.67;;;31.60;33.90;;;;;;5017700;28;20029;-67
2021/03/10 12:56:52;;;;;;;4.68;3.58;;;32.30;33.40;;;;;;5009576;28;20049;-68
2021/03/10 12:59:57;;;;;;;4.72;3.35;;;31.80;33.00;;;;;;5019255;28;21142;-68
2021/03/10 13:03:02;;;;;;;4.20;3.30;;;31.50;33.90;;;;;;5014258;28;20064;-69
2021/03/10 13:06:06;;;;;;;4.75;3.42;;;32.10;33.80;;;;;;5014026;28;20048;-68
2021/03/10 13:09:11;;;;;;;5.18;3.40;;;32.10;33.20;;;;;;5012924;28;20049;-68
2021/03/10 13:12:15;;;;;;;5.72;3.78;;;31.40;33.90;;;;;;5015046;28;20041;-68
2021/03/10 13:15:20;;;;;;;5.05;3.42;;;30.80;33.70;;;;;;5016270;28;20034;-68
2021/03/10 13:18:26;;;;;;;4.90;3.22;;;31.20;33.50;;;;;;5022511;28;20056;-68
2021/03/10 13:21:30;;;;;;;4.50;3.55;;;30.70;33.90;;;;;;5008495;28;20045;-68
2021/03/10 13:24:35;;;;;;;6.32;3.50;;;30.40;34.40;;;;;;5018234;28;20052;-68
2021/03/10 13:27:41;;;;;;;6.35;4.07;;;30.00;34.10;;;;;;5016835;28;20048;-68
2021/03/10 13:30:46;;;;;;;5.45;3.75;;;29.70;34.20;;;;;;5010214;28;20044;-67
2021/03/10 13:33:50;;;;;;;7.07;3.60;;;29.80;34.90;;;;;;5015332;28;20064;-68
2021/03/10 13:36:54;;;;;;;6.70;3.97;;;29.20;34.90;;;;;;5015094;28;20045;-68
2021/03/10 13:39:59;;;;;;;6.13;3.28;;;29.90;34.40;;;;;;5012910;28;20427;-68
2021/03/10 13:43:03;;;;;;;4.80;3.50;;;29.80;34.60;;;;;;5013328;28;20064;-68
2021/03/10 13:46:08;;;;;;;5.45;4.10;;;28.60;35.70;;;;;;5005212;28;20038;-67
2021/03/10 13:49:12;;;;;;;4.72;3.60;;;28.30;35.60;;;;;;5008733;28;20040;-67
2021/03/10 13:52:17;;;;;;;6.10;4.03;;;28.40;35.70;;;;;;5011015;28;20052;-67
2021/03/10 13:55:21;;;;;;;5.43;3.80;;;27.70;35.60;;;;;;5011704;28;20037;-68
2021/03/10 13:58:26;;;;;;;5.57;3.60;;;27.50;36.80;;;;;;5013023;28;21273;-69
2021/03/10 14:01:30;;;;;;;5.05;3.72;;;27.70;37.10;;;;;;5009854;28;20046;-68
2021/03/10 14:04:34;;;;;;;5.05;3.47;;;28.00;36.10;;;;;;5016288;28;20056;-68
2021/03/10 14:07:38;;;;;;;5.78;3.30;;;28.20;35.70;;;;;;5016675;28;20053;-67
2021/03/10 14:10:42;;;;;;;4.55;3.72;;;28.00;36.30;;;;;;5011569;28;20057;-67
2021/03/10 14:13:46;;;;;;;5.05;3.70;;;27.80;36.20;;;;;;5016734;28;20048;-67
2021/03/10 14:16:51;;;;;;;5.57;3.40;;;27.40;36.20;;;;;;5014724;28;20033;-68
2021/03/10 14:19:55;;;;;;;5.53;4.07;;;27.60;35.90;;;;;;5011282;28;20052;-68
2021/03/10 14:23:00;;;;;;;5.75;4.25;;;27.10;36.50;;;;;;5010490;28;20712;-67
2021/03/10 14:26:04;;;;;;;4.60;3.63;;;26.50;36.70;;;;;;5008215;28;20057;-69
2021/03/10 14:29:09;;;;;;;9.60;4.15;;;26.10;36.80;;;;;;5010314;28;20045;-69
2021/03/10 14:32:13;;;;;;;8.32;4.05;;;25.40;37.00;;;;;;5010075;28;20040;-68
2021/03/10 14:35:18;;;;;;;8.65;3.70;;;25.10;37.80;;;;;;5011454;28;20036;-69
2021/03/10 14:38:23;;;;;;;5.55;4.10;;;25.40;37.60;;;;;;5010615;28;20506;-68
2021/03/10 14:41:27;;;;;;;4.20;3.50;;;25.40;37.30;;;;;;5005570;28;20411;-69
2021/03/10 14:44:32;;;;;;;6.20;4.03;;;25.20;37.40;;;;;;5015045;28;20048;-69
2021/03/10 14:47:37;;;;;;;5.03;3.83;;;25.40;37.60;;;;;;5013246;28;20552;-68
2021/03/10 14:50:41;;;;;;;10.50;4.25;;;24.90;38.00;;;;;;5007155;28;20044;-69
2021/03/10 14:53:45;;;;;;;6.00;3.63;;;24.70;38.10;;;;;;5012838;28;20052;-68
2021/03/10 14:56:49;;;;;;;7.32;3.80;;;24.40;38.00;;;;;;5008800;28;20052;-68
2021/03/10 14:59:54;;;;;;;6.43;3.85;;;23.80;39.50;;;;;;5008848;28;20407;-68
2021/03/10 15:02:58;;;;;;;6.72;3.95;;;23.60;39.70;;;;;;5017442;28;20400;-68
2021/03/10 15:06:02;;;;;;;8.57;4.78;;;23.50;39.20;;;;;;5012902;28;20515;-68
2021/03/10 15:09:07;;;;;;;6.82;3.80;;;22.90;39.80;;;;;;5015327;28;20539;-68
2021/03/10 15:12:12;;;;;;;6.65;3.70;;;22.40;39.50;;;;;;5014481;28;20403;-68
2021/03/10 15:15:16;;;;;;;5.97;4.13;;;21.80;41.00;;;;;;5014521;28;20054;-68
2021/03/10 15:18:20;;;;;;;8.27;4.30;;;21.50;40.70;;;;;;5016522;28;20057;-67
2021/03/10 15:21:24;;;;;;;7.00;3.95;;;20.60;41.70;;;;;;5010532;28;20052;-67
2021/03/10 15:24:28;;;;;;;7.18;3.65;;;20.00;42.70;;;;;;5015811;28;20049;-68
2021/03/10 15:27:33;;;;;;;6.15;3.72;;;19.90;43.30;;;;;;5012053;28;20048;-68
2021/03/10 15:30:38;;;;;;;5.40;3.80;;;19.60;42.90;;;;;;5014289;28;20245;-68
2021/03/10 15:33:43;;;;;;;6.78;4.32;;;19.30;43.50;;;;;;5020474;28;20048;-68
2021/03/10 15:36:48;;;;;;;5.40;3.95;;;18.80;44.00;;;;;;5019515;28;20038;-67
2021/03/10 15:39:52;;;;;;;9.18;4.97;;;18.20;44.50;;;;;;5013956;28;20041;-68
2021/03/10 15:42:56;;;;;;;7.65;4.20;;;18.00;44.80;;;;;;5020044;28;20048;-68
2021/03/10 15:46:01;;;;;;;6.78;4.40;;;17.80;45.50;;;;;;5019234;28;20060;-67
2021/03/10 15:49:06;;;;;;;7.93;4.40;;;17.70;45.90;;;;;;5018403;28;20048;-68
2021/03/10 15:52:11;;;;;;;6.47;4.05;;;17.40;46.10;;;;;;5017805;28;20064;-67
2021/03/10 15:55:15;;;;;;;9.63;4.25;;;17.40;47.00;;;;;;5019521;28;20038;-67
2021/03/10 15:58:20;;;;;;;8.32;4.93;;;17.20;46.70;;;;;;5018996;28;20033;-67
2021/03/10 16:01:24;;;;;;;10.48;4.72;;;16.80;47.20;;;;;;5014943;28;20509;-67
2021/03/10 16:04:28;;;;;;;6.78;4.57;;;16.80;48.70;;;;;;5018998;28;20045;-67
2021/03/10 16:07:32;;;;;;;7.18;4.30;;;16.70;47.40;;;;;;5019099;28;20052;-66